Terminal Aerodrome Forecast
Issued by NWS Melbourne, FL

Home | Current Version | Previous Version | Text Only | Print | Product List | Glossary On
Versions: 1 2 3 4 5 6 7 8 9 10 11 12 13 14
000
FTUS42 KMLB 162300
TAFVRB
TAF
KVRB 162334Z 1700/1724 04011G18KT P6SM VCSH SCT025 OVC035
     FM170400 05011G17KT P6SM VCSH OVC020
     FM171300 06014G22KT P6SM VCSH BKN015 OVC035
      TEMPO 1714/1718 3SM SHRA BKN015=

USA.gov is the U.S. government's official web portal to all federal, state and local government web resources and services.